sensor_id;sensor_type;location;lat;lon;timestamp;temperature;humidity
37518;DHT22;23366;52.498;13.446;2022-07-24T00:00:54;18.70;87.00
37518;DHT22;23366;52.498;13.446;2022-07-24T00:03:21;18.60;88.50
37518;DHT22;23366;52.498;13.446;2022-07-24T00:05:47;18.70;88.30
37518;DHT22;23366;52.498;13.446;2022-07-24T00:08:13;18.70;88.00
37518;DHT22;23366;52.498;13.446;2022-07-24T00:10:38;18.60;88.60
37518;DHT22;23366;52.498;13.446;2022-07-24T00:13:04;18.60;87.30
37518;DHT22;23366;52.498;13.446;2022-07-24T00:15:30;18.60;89.10
37518;DHT22;23366;52.498;13.446;2022-07-24T00:17:56;18.60;88.70
37518;DHT22;23366;52.498;13.446;2022-07-24T00:20:22;18.60;88.90
37518;DHT22;23366;52.498;13.446;2022-07-24T00:22:48;18.60;89.30
37518;DHT22;23366;52.498;13.446;2022-07-24T00:25:14;18.60;89.30
37518;DHT22;23366;52.498;13.446;2022-07-24T00:27:40;18.50;89.00
37518;DHT22;23366;52.498;13.446;2022-07-24T00:30:06;18.50;89.10
37518;DHT22;23366;52.498;13.446;2022-07-24T00:32:32;18.50;89.00
37518;DHT22;23366;52.498;13.446;2022-07-24T00:34:57;18.50;89.50
37518;DHT22;23366;52.498;13.446;2022-07-24T00:37:23;18.50;89.00
37518;DHT22;23366;52.498;13.446;2022-07-24T00:39:49;18.50;89.80
37518;DHT22;23366;52.498;13.446;2022-07-24T00:42:14;18.50;90.00
37518;DHT22;23366;52.498;13.446;2022-07-24T00:44:40;18.50;90.10
37518;DHT22;23366;52.498;13.446;2022-07-24T00:47:06;18.40;90.20
37518;DHT22;23366;52.498;13.446;2022-07-24T00:49:31;18.40;90.20
37518;DHT22;23366;52.498;13.446;2022-07-24T00:51:57;18.40;90.40
37518;DHT22;23366;52.498;13.446;2022-07-24T00:54:23;18.40;90.30
37518;DHT22;23366;52.498;13.446;2022-07-24T00:56:51;18.40;90.70
37518;DHT22;23366;52.498;13.446;2022-07-24T00:59:17;18.40;90.70
37518;DHT22;23366;52.498;13.446;2022-07-24T01:01:45;18.30;90.60
37518;DHT22;23366;52.498;13.446;2022-07-24T01:04:11;18.30;90.70
37518;DHT22;23366;52.498;13.446;2022-07-24T01:06:37;18.30;90.80
37518;DHT22;23366;52.498;13.446;2022-07-24T01:09:07;18.30;90.90
37518;DHT22;23366;52.498;13.446;2022-07-24T01:11:34;18.30;91.10
37518;DHT22;23366;52.498;13.446;2022-07-24T01:13:59;18.30;91.10
37518;DHT22;23366;52.498;13.446;2022-07-24T01:16:25;18.20;91.20
37518;DHT22;23366;52.498;13.446;2022-07-24T01:18:51;18.20;91.30
37518;DHT22;23366;52.498;13.446;2022-07-24T01:21:16;18.20;91.20
37518;DHT22;23366;52.498;13.446;2022-07-24T01:23:42;18.20;91.40
37518;DHT22;23366;52.498;13.446;2022-07-24T01:26:08;18.20;91.70
37518;DHT22;23366;52.498;13.446;2022-07-24T01:28:34;18.10;91.50
37518;DHT22;23366;52.498;13.446;2022-07-24T01:31:00;18.10;92.00
37518;DHT22;23366;52.498;13.446;2022-07-24T01:33:26;18.10;91.90
37518;DHT22;23366;52.498;13.446;2022-07-24T01:35:51;18.10;91.90
37518;DHT22;23366;52.498;13.446;2022-07-24T01:38:18;18.10;91.70
37518;DHT22;23366;52.498;13.446;2022-07-24T01:40:43;18.10;92.00
37518;DHT22;23366;52.498;13.446;2022-07-24T01:43:10;18.00;92.10
37518;DHT22;23366;52.498;13.446;2022-07-24T01:45:36;18.00;92.30
37518;DHT22;23366;52.498;13.446;2022-07-24T01:48:02;18.00;92.30
37518;DHT22;23366;52.498;13.446;2022-07-24T01:50:29;18.00;92.40
37518;DHT22;23366;52.498;13.446;2022-07-24T01:52:54;18.00;92.60
37518;DHT22;23366;52.498;13.446;2022-07-24T01:55:21;18.00;92.70
37518;DHT22;23366;52.498;13.446;2022-07-24T01:57:47;18.00;92.90
37518;DHT22;23366;52.498;13.446;2022-07-24T02:00:13;17.90;93.10
37518;DHT22;23366;52.498;13.446;2022-07-24T02:02:42;18.00;92.90
37518;DHT22;23366;52.498;13.446;2022-07-24T02:05:08;17.90;93.10
37518;DHT22;23366;52.498;13.446;2022-07-24T02:07:34;17.90;93.20
37518;DHT22;23366;52.498;13.446;2022-07-24T02:10:00;17.90;93.20
37518;DHT22;23366;52.498;13.446;2022-07-24T02:12:26;17.90;93.40
37518;DHT22;23366;52.498;13.446;2022-07-24T02:14:51;17.80;93.40
37518;DHT22;23366;52.498;13.446;2022-07-24T02:17:18;17.80;93.50
37518;DHT22;23366;52.498;13.446;2022-07-24T02:19:43;17.80;93.80
37518;DHT22;23366;52.498;13.446;2022-07-24T02:22:10;17.80;93.80
37518;DHT22;23366;52.498;13.446;2022-07-24T02:24:36;17.70;93.80
37518;DHT22;23366;52.498;13.446;2022-07-24T02:27:01;17.70;93.90
37518;DHT22;23366;52.498;13.446;2022-07-24T02:29:27;17.70;94.10
37518;DHT22;23366;52.498;13.446;2022-07-24T02:31:53;17.70;94.00
37518;DHT22;23366;52.498;13.446;2022-07-24T02:34:18;17.70;94.10
37518;DHT22;23366;52.498;13.446;2022-07-24T02:36:44;17.60;94.00
37518;DHT22;23366;52.498;13.446;2022-07-24T02:39:09;17.60;94.20
37518;DHT22;23366;52.498;13.446;2022-07-24T02:41:35;17.60;94.30
37518;DHT22;23366;52.498;13.446;2022-07-24T02:44:01;17.60;94.50
37518;DHT22;23366;52.498;13.446;2022-07-24T02:46:27;17.60;94.40
37518;DHT22;23366;52.498;13.446;2022-07-24T02:48:52;17.60;94.50
37518;DHT22;23366;52.498;13.446;2022-07-24T02:51:18;17.60;94.40
37518;DHT22;23366;52.498;13.446;2022-07-24T02:53:43;17.60;94.50
37518;DHT22;23366;52.498;13.446;2022-07-24T02:56:09;17.50;94.40
37518;DHT22;23366;52.498;13.446;2022-07-24T02:58:35;17.50;94.60
37518;DHT22;23366;52.498;13.446;2022-07-24T03:01:00;17.50;94.50
37518;DHT22;23366;52.498;13.446;2022-07-24T03:03:26;17.50;94.60
37518;DHT22;23366;52.498;13.446;2022-07-24T03:05:52;17.40;94.70
37518;DHT22;23366;52.498;13.446;2022-07-24T03:08:17;17.40;94.80
37518;DHT22;23366;52.498;13.446;2022-07-24T03:10:43;17.40;95.10
37518;DHT22;23366;52.498;13.446;2022-07-24T03:13:09;17.40;95.00
37518;DHT22;23366;52.498;13.446;2022-07-24T03:15:34;17.40;95.10
37518;DHT22;23366;52.498;13.446;2022-07-24T03:18:00;17.40;95.30
37518;DHT22;23366;52.498;13.446;2022-07-24T03:20:27;17.40;95.10
37518;DHT22;23366;52.498;13.446;2022-07-24T03:22:54;17.40;95.30
37518;DHT22;23366;52.498;13.446;2022-07-24T03:25:20;17.40;95.60
37518;DHT22;23366;52.498;13.446;2022-07-24T03:27:46;17.40;95.70
37518;DHT22;23366;52.498;13.446;2022-07-24T03:30:13;17.40;95.70
37518;DHT22;23366;52.498;13.446;2022-07-24T03:32:40;17.40;95.40
37518;DHT22;23366;52.498;13.446;2022-07-24T03:35:05;17.30;95.80
37518;DHT22;23366;52.498;13.446;2022-07-24T03:37:31;17.40;95.90
37518;DHT22;23366;52.498;13.446;2022-07-24T03:39:57;17.40;95.90
37518;DHT22;23366;52.498;13.446;2022-07-24T03:42:22;17.40;95.70
37518;DHT22;23366;52.498;13.446;2022-07-24T03:44:48;17.40;95.90
37518;DHT22;23366;52.498;13.446;2022-07-24T03:47:14;17.40;95.90
37518;DHT22;23366;52.498;13.446;2022-07-24T03:49:39;17.40;96.10
37518;DHT22;23366;52.498;13.446;2022-07-24T03:52:05;17.40;96.00
37518;DHT22;23366;52.498;13.446;2022-07-24T03:54:31;17.40;96.00
37518;DHT22;23366;52.498;13.446;2022-07-24T03:56:56;17.40;96.40
37518;DHT22;23366;52.498;13.446;2022-07-24T03:59:22;17.40;96.30
37518;DHT22;23366;52.498;13.446;2022-07-24T04:01:48;17.50;96.60
37518;DHT22;23366;52.498;13.446;2022-07-24T04:04:13;17.50;96.50
37518;DHT22;23366;52.498;13.446;2022-07-24T04:06:39;17.50;96.30
37518;DHT22;23366;52.498;13.446;2022-07-24T04:09:06;17.60;96.30
37518;DHT22;23366;52.498;13.446;2022-07-24T04:11:32;17.60;96.40
37518;DHT22;23366;52.498;13.446;2022-07-24T04:13:58;17.70;96.30
37518;DHT22;23366;52.498;13.446;2022-07-24T04:16:24;17.70;95.60
37518;DHT22;23366;52.498;13.446;2022-07-24T04:18:49;17.80;95.70
37518;DHT22;23366;52.498;13.446;2022-07-24T04:21:17;17.90;95.80
37518;DHT22;23366;52.498;13.446;2022-07-24T04:23:42;18.00;95.70
37518;DHT22;23366;52.498;13.446;2022-07-24T04:26:08;18.00;95.30
37518;DHT22;23366;52.498;13.446;2022-07-24T04:28:34;18.10;95.30
37518;DHT22;23366;52.498;13.446;2022-07-24T04:31:00;18.20;95.20
37518;DHT22;23366;52.498;13.446;2022-07-24T04:33:26;18.30;94.70
37518;DHT22;23366;52.498;13.446;2022-07-24T04:35:51;18.40;94.60
37518;DHT22;23366;52.498;13.446;2022-07-24T04:38:17;18.50;94.30
37518;DHT22;23366;52.498;13.446;2022-07-24T04:40:42;18.60;94.10
37518;DHT22;23366;52.498;13.446;2022-07-24T04:43:08;18.80;93.80
37518;DHT22;23366;52.498;13.446;2022-07-24T04:45:34;19.00;93.30
37518;DHT22;23366;52.498;13.446;2022-07-24T04:47:59;19.10;93.20
37518;DHT22;23366;52.498;13.446;2022-07-24T04:50:25;19.30;92.20
37518;DHT22;23366;52.498;13.446;2022-07-24T04:52:51;19.60;91.90
37518;DHT22;23366;52.498;13.446;2022-07-24T04:55:16;19.90;91.40
37518;DHT22;23366;52.498;13.446;2022-07-24T04:57:43;20.40;90.60
37518;DHT22;23366;52.498;13.446;2022-07-24T05:00:11;21.00;89.00
37518;DHT22;23366;52.498;13.446;2022-07-24T05:02:37;22.00;86.30
37518;DHT22;23366;52.498;13.446;2022-07-24T05:05:03;23.60;80.10
37518;DHT22;23366;52.498;13.446;2022-07-24T05:07:28;25.10;75.10
37518;DHT22;23366;52.498;13.446;2022-07-24T05:09:54;26.50;70.60
37518;DHT22;23366;52.498;13.446;2022-07-24T05:12:20;27.70;67.20
37518;DHT22;23366;52.498;13.446;2022-07-24T05:14:48;28.80;64.50
37518;DHT22;23366;52.498;13.446;2022-07-24T05:17:14;29.70;62.20
37518;DHT22;23366;52.498;13.446;2022-07-24T05:19:40;30.50;59.70
37518;DHT22;23366;52.498;13.446;2022-07-24T05:22:07;31.00;58.10
37518;DHT22;23366;52.498;13.446;2022-07-24T05:24:32;31.50;56.60
37518;DHT22;23366;52.498;13.446;2022-07-24T05:26:58;31.70;56.20
37518;DHT22;23366;52.498;13.446;2022-07-24T05:29:24;32.00;55.30
37518;DHT22;23366;52.498;13.446;2022-07-24T05:31:49;31.90;54.90
37518;DHT22;23366;52.498;13.446;2022-07-24T05:34:17;31.80;55.40
37518;DHT22;23366;52.498;13.446;2022-07-24T05:36:43;31.70;54.30
37518;DHT22;23366;52.498;13.446;2022-07-24T05:39:09;32.20;54.70
37518;DHT22;23366;52.498;13.446;2022-07-24T05:41:34;33.00;53.10
37518;DHT22;23366;52.498;13.446;2022-07-24T05:44:00;33.70;52.10
37518;DHT22;23366;52.498;13.446;2022-07-24T05:46:26;34.30;51.00
37518;DHT22;23366;52.498;13.446;2022-07-24T05:48:51;34.70;50.60
37518;DHT22;23366;52.498;13.446;2022-07-24T05:51:17;35.00;50.20
37518;DHT22;23366;52.498;13.446;2022-07-24T05:53:43;35.30;49.20
37518;DHT22;23366;52.498;13.446;2022-07-24T05:56:08;35.40;48.90
37518;DHT22;23366;52.498;13.446;2022-07-24T05:58:35;35.40;49.10
37518;DHT22;23366;52.498;13.446;2022-07-24T06:01:00;35.60;48.30
37518;DHT22;23366;52.498;13.446;2022-07-24T06:03:26;35.60;48.40
37518;DHT22;23366;52.498;13.446;2022-07-24T06:05:52;35.40;48.20
37518;DHT22;23366;52.498;13.446;2022-07-24T06:08:17;35.40;48.10
37518;DHT22;23366;52.498;13.446;2022-07-24T06:10:43;35.40;48.30
37518;DHT22;23366;52.498;13.446;2022-07-24T06:13:09;35.40;48.60
37518;DHT22;23366;52.498;13.446;2022-07-24T06:15:34;35.50;48.00
37518;DHT22;23366;52.498;13.446;2022-07-24T06:18:00;35.30;48.50
37518;DHT22;23366;52.498;13.446;2022-07-24T06:20:25;35.10;48.40
37518;DHT22;23366;52.498;13.446;2022-07-24T06:22:51;34.80;48.70
37518;DHT22;23366;52.498;13.446;2022-07-24T06:25:17;34.60;48.90
37518;DHT22;23366;52.498;13.446;2022-07-24T06:27:45;34.60;48.80
37518;DHT22;23366;52.498;13.446;2022-07-24T06:30:22;34.40;49.20
37518;DHT22;23366;52.498;13.446;2022-07-24T06:32:49;34.40;49.10
37518;DHT22;23366;52.498;13.446;2022-07-24T06:35:18;34.40;49.00
37518;DHT22;23366;52.498;13.446;2022-07-24T06:37:43;34.40;49.20
37518;DHT22;23366;52.498;13.446;2022-07-24T06:40:10;34.60;49.00
37518;DHT22;23366;52.498;13.446;2022-07-24T06:42:36;34.70;48.80
37518;DHT22;23366;52.498;13.446;2022-07-24T06:45:03;34.80;48.40
37518;DHT22;23366;52.498;13.446;2022-07-24T06:47:28;35.00;48.60
37518;DHT22;23366;52.498;13.446;2022-07-24T06:49:54;35.10;48.30
37518;DHT22;23366;52.498;13.446;2022-07-24T06:52:20;35.20;48.00
37518;DHT22;23366;52.498;13.446;2022-07-24T06:54:47;35.10;48.50
37518;DHT22;23366;52.498;13.446;2022-07-24T06:57:13;35.20;48.40
37518;DHT22;23366;52.498;13.446;2022-07-24T06:59:39;35.40;48.20
37518;DHT22;23366;52.498;13.446;2022-07-24T07:02:08;35.50;47.40
37518;DHT22;23366;52.498;13.446;2022-07-24T07:04:33;35.70;47.30
37518;DHT22;23366;52.498;13.446;2022-07-24T07:06:59;35.90;46.80
37518;DHT22;23366;52.498;13.446;2022-07-24T07:09:25;36.20;46.70
37518;DHT22;23366;52.498;13.446;2022-07-24T07:11:51;36.60;46.70
37518;DHT22;23366;52.498;13.446;2022-07-24T07:14:16;37.10;45.70
37518;DHT22;23366;52.498;13.446;2022-07-24T07:16:42;37.90;45.30
37518;DHT22;23366;52.498;13.446;2022-07-24T07:19:08;38.70;44.30
37518;DHT22;23366;52.498;13.446;2022-07-24T07:21:33;39.40;43.90
37518;DHT22;23366;52.498;13.446;2022-07-24T07:24:00;39.90;43.00
37518;DHT22;23366;52.498;13.446;2022-07-24T07:26:25;40.50;42.30
37518;DHT22;23366;52.498;13.446;2022-07-24T07:28:51;40.90;41.70
37518;DHT22;23366;52.498;13.446;2022-07-24T07:31:17;41.30;41.90
37518;DHT22;23366;52.498;13.446;2022-07-24T07:33:43;41.60;41.30
37518;DHT22;23366;52.498;13.446;2022-07-24T07:36:08;41.80;41.20
37518;DHT22;23366;52.498;13.446;2022-07-24T07:38:35;42.20;40.80
37518;DHT22;23366;52.498;13.446;2022-07-24T07:41:03;42.70;40.50
37518;DHT22;23366;52.498;13.446;2022-07-24T07:43:28;43.10;40.20
37518;DHT22;23366;52.498;13.446;2022-07-24T07:45:54;43.80;38.40
37518;DHT22;23366;52.498;13.446;2022-07-24T07:48:20;44.30;38.10
37518;DHT22;23366;52.498;13.446;2022-07-24T07:50:46;45.30;37.70
37518;DHT22;23366;52.498;13.446;2022-07-24T07:53:12;46.60;37.10
37518;DHT22;23366;52.498;13.446;2022-07-24T07:55:38;47.80;36.50
37518;DHT22;23366;52.498;13.446;2022-07-24T07:58:04;48.90;35.20
37518;DHT22;23366;52.498;13.446;2022-07-24T08:00:31;50.00;34.20
37518;DHT22;23366;52.498;13.446;2022-07-24T08:02:57;51.00;34.00
37518;DHT22;23366;52.498;13.446;2022-07-24T08:05:23;51.90;33.30
37518;DHT22;23366;52.498;13.446;2022-07-24T08:07:49;52.70;32.70
37518;DHT22;23366;52.498;13.446;2022-07-24T08:10:15;53.40;32.40
37518;DHT22;23366;52.498;13.446;2022-07-24T08:12:41;53.80;31.90
37518;DHT22;23366;52.498;13.446;2022-07-24T08:15:07;54.30;31.50
37518;DHT22;23366;52.498;13.446;2022-07-24T08:17:33;54.40;32.00
37518;DHT22;23366;52.498;13.446;2022-07-24T08:19:59;54.30;31.00
37518;DHT22;23366;52.498;13.446;2022-07-24T08:22:25;54.10;31.00
37518;DHT22;23366;52.498;13.446;2022-07-24T08:24:50;54.40;31.30
37518;DHT22;23366;52.498;13.446;2022-07-24T08:27:16;54.40;31.20
37518;DHT22;23366;52.498;13.446;2022-07-24T08:29:41;54.00;30.80
37518;DHT22;23366;52.498;13.446;2022-07-24T08:32:07;53.90;31.30
37518;DHT22;23366;52.498;13.446;2022-07-24T08:34:33;53.40;31.10
37518;DHT22;23366;52.498;13.446;2022-07-24T08:36:59;52.90;31.00
37518;DHT22;23366;52.498;13.446;2022-07-24T08:39:25;52.30;31.20
37518;DHT22;23366;52.498;13.446;2022-07-24T08:41:50;51.70;31.30
37518;DHT22;23366;52.498;13.446;2022-07-24T08:44:16;50.90;31.20
37518;DHT22;23366;52.498;13.446;2022-07-24T08:46:42;50.30;31.40
37518;DHT22;23366;52.498;13.446;2022-07-24T08:49:12;50.00;31.60
37518;DHT22;23366;52.498;13.446;2022-07-24T08:51:40;49.60;32.10
37518;DHT22;23366;52.498;13.446;2022-07-24T08:54:07;49.40;32.00
37518;DHT22;23366;52.498;13.446;2022-07-24T08:56:33;49.40;32.00
37518;DHT22;23366;52.498;13.446;2022-07-24T08:58:59;49.40;32.50
37518;DHT22;23366;52.498;13.446;2022-07-24T09:01:26;49.40;31.50
37518;DHT22;23366;52.498;13.446;2022-07-24T09:03:52;49.20;32.10
37518;DHT22;23366;52.498;13.446;2022-07-24T09:06:19;49.40;32.10
37518;DHT22;23366;52.498;13.446;2022-07-24T09:09:02;49.30;32.20
37518;DHT22;23366;52.498;13.446;2022-07-24T09:11:28;49.20;33.00
37518;DHT22;23366;52.498;13.446;2022-07-24T09:14:00;48.80;31.50
37518;DHT22;23366;52.498;13.446;2022-07-24T09:16:45;48.80;32.20
37518;DHT22;23366;52.498;13.446;2022-07-24T09:19:11;48.90;32.70
37518;DHT22;23366;52.498;13.446;2022-07-24T09:21:40;48.90;32.70
37518;DHT22;23366;52.498;13.446;2022-07-24T09:24:20;49.00;32.30
37518;DHT22;23366;52.498;13.446;2022-07-24T09:26:55;48.90;32.20
37518;DHT22;23366;52.498;13.446;2022-07-24T09:29:23;48.60;32.50
37518;DHT22;23366;52.498;13.446;2022-07-24T09:32:01;47.90;32.50
37518;DHT22;23366;52.498;13.446;2022-07-24T09:34:29;47.00;32.90
37518;DHT22;23366;52.498;13.446;2022-07-24T09:37:08;45.90;33.40
37518;DHT22;23366;52.498;13.446;2022-07-24T09:39:35;44.90;33.70
37518;DHT22;23366;52.498;13.446;2022-07-24T09:42:04;43.70;34.10
37518;DHT22;23366;52.498;13.446;2022-07-24T09:44:31;42.50;35.20
37518;DHT22;23366;52.498;13.446;2022-07-24T09:47:06;41.20;36.00
37518;DHT22;23366;52.498;13.446;2022-07-24T09:49:32;39.90;36.90
37518;DHT22;23366;52.498;13.446;2022-07-24T09:52:13;38.70;37.50
37518;DHT22;23366;52.498;13.446;2022-07-24T09:59:56;35.70;40.50
37518;DHT22;23366;52.498;13.446;2022-07-24T10:02:25;35.00;41.80
37518;DHT22;23366;52.498;13.446;2022-07-24T10:04:51;34.30;42.20
37518;DHT22;23366;52.498;13.446;2022-07-24T10:07:20;33.70;43.40
37518;DHT22;23366;52.498;13.446;2022-07-24T10:09:48;33.20;43.80
37518;DHT22;23366;52.498;13.446;2022-07-24T10:12:17;32.80;44.30
37518;DHT22;23366;52.498;13.446;2022-07-24T10:14:44;32.40;44.70
37518;DHT22;23366;52.498;13.446;2022-07-24T10:17:11;32.20;45.30
37518;DHT22;23366;52.498;13.446;2022-07-24T10:19:48;31.90;45.40
37518;DHT22;23366;52.498;13.446;2022-07-24T10:22:20;31.60;46.10
37518;DHT22;23366;52.498;13.446;2022-07-24T10:24:52;31.40;46.30
37518;DHT22;23366;52.498;13.446;2022-07-24T10:27:30;31.10;46.50
37518;DHT22;23366;52.498;13.446;2022-07-24T10:29:59;30.70;47.10
37518;DHT22;23366;52.498;13.446;2022-07-24T10:32:26;30.70;47.60
37518;DHT22;23366;52.498;13.446;2022-07-24T10:35:18;30.60;48.20
37518;DHT22;23366;52.498;13.446;2022-07-24T10:40:51;30.50;48.40
37518;DHT22;23366;52.498;13.446;2022-07-24T10:43:20;30.40;49.10
37518;DHT22;23366;52.498;13.446;2022-07-24T10:48:35;30.20;47.10
37518;DHT22;23366;52.498;13.446;2022-07-24T10:51:10;30.10;48.60
37518;DHT22;23366;52.498;13.446;2022-07-24T10:59:05;29.80;48.70
37518;DHT22;23366;52.498;13.446;2022-07-24T11:06:53;29.60;49.50
37518;DHT22;23366;52.498;13.446;2022-07-24T11:09:22;29.60;49.70
37518;DHT22;23366;52.498;13.446;2022-07-24T11:14:19;29.40;49.70
37518;DHT22;23366;52.498;13.446;2022-07-24T11:16:47;29.30;50.60
37518;DHT22;23366;52.498;13.446;2022-07-24T11:21:45;29.20;50.60
37518;DHT22;23366;52.498;13.446;2022-07-24T11:26:51;29.00;50.30
37518;DHT22;23366;52.498;13.446;2022-07-24T11:29:19;28.80;50.70
37518;DHT22;23366;52.498;13.446;2022-07-24T11:31:55;28.80;51.50
37518;DHT22;23366;52.498;13.446;2022-07-24T11:34:22;28.80;51.80
37518;DHT22;23366;52.498;13.446;2022-07-24T11:36:49;28.70;51.30
37518;DHT22;23366;52.498;13.446;2022-07-24T11:39:16;28.70;51.60
37518;DHT22;23366;52.498;13.446;2022-07-24T11:41:44;28.80;51.50
37518;DHT22;23366;52.498;13.446;2022-07-24T11:44:11;28.80;51.30
37518;DHT22;23366;52.498;13.446;2022-07-24T11:46:38;28.80;50.50
37518;DHT22;23366;52.498;13.446;2022-07-24T11:49:06;28.60;50.10
37518;DHT22;23366;52.498;13.446;2022-07-24T11:51:43;28.50;52.20
37518;DHT22;23366;52.498;13.446;2022-07-24T11:54:11;28.40;52.20
37518;DHT22;23366;52.498;13.446;2022-07-24T11:56:37;28.40;51.40
37518;DHT22;23366;52.498;13.446;2022-07-24T11:59:02;28.40;51.10
37518;DHT22;23366;52.498;13.446;2022-07-24T12:01:28;28.40;51.60
37518;DHT22;23366;52.498;13.446;2022-07-24T12:03:59;28.40;52.30
37518;DHT22;23366;52.498;13.446;2022-07-24T12:06:26;28.50;51.90
37518;DHT22;23366;52.498;13.446;2022-07-24T12:08:57;28.50;51.40
37518;DHT22;23366;52.498;13.446;2022-07-24T12:11:23;28.40;51.80
37518;DHT22;23366;52.498;13.446;2022-07-24T12:13:50;28.40;50.50
37518;DHT22;23366;52.498;13.446;2022-07-24T12:16:25;28.40;52.20
37518;DHT22;23366;52.498;13.446;2022-07-24T12:18:51;28.40;51.30
37518;DHT22;23366;52.498;13.446;2022-07-24T12:21:17;28.40;51.20
37518;DHT22;23366;52.498;13.446;2022-07-24T12:23:46;28.40;50.90
37518;DHT22;23366;52.498;13.446;2022-07-24T12:26:12;28.30;49.40
37518;DHT22;23366;52.498;13.446;2022-07-24T12:28:37;28.20;50.90
37518;DHT22;23366;52.498;13.446;2022-07-24T12:31:07;28.10;52.50
37518;DHT22;23366;52.498;13.446;2022-07-24T12:33:36;28.00;51.30
37518;DHT22;23366;52.498;13.446;2022-07-24T12:36:06;28.00;50.80
37518;DHT22;23366;52.498;13.446;2022-07-24T12:41:17;28.00;51.50
37518;DHT22;23366;52.498;13.446;2022-07-24T12:43:49;28.00;51.70
37518;DHT22;23366;52.498;13.446;2022-07-24T12:46:16;28.00;51.30
37518;DHT22;23366;52.498;13.446;2022-07-24T12:48:56;27.90;51.40
37518;DHT22;23366;52.498;13.446;2022-07-24T12:51:22;28.00;51.90
37518;DHT22;23366;52.498;13.446;2022-07-24T12:53:53;28.00;51.50
37518;DHT22;23366;52.498;13.446;2022-07-24T12:56:19;27.90;51.40
37518;DHT22;23366;52.498;13.446;2022-07-24T12:58:57;27.90;50.60
37518;DHT22;23366;52.498;13.446;2022-07-24T13:01:25;27.90;51.60
37518;DHT22;23366;52.498;13.446;2022-07-24T13:04:00;27.80;51.20
37518;DHT22;23366;52.498;13.446;2022-07-24T13:06:35;27.90;51.50
37518;DHT22;23366;52.498;13.446;2022-07-24T13:09:02;27.80;51.80
37518;DHT22;23366;52.498;13.446;2022-07-24T13:11:27;27.80;52.20
37518;DHT22;23366;52.498;13.446;2022-07-24T13:13:53;27.80;51.50
37518;DHT22;23366;52.498;13.446;2022-07-24T13:16:19;27.90;51.50
37518;DHT22;23366;52.498;13.446;2022-07-24T13:18:45;27.90;52.30
37518;DHT22;23366;52.498;13.446;2022-07-24T13:21:10;27.90;51.90
37518;DHT22;23366;52.498;13.446;2022-07-24T13:23:36;27.90;51.70
37518;DHT22;23366;52.498;13.446;2022-07-24T13:26:02;27.90;51.50
37518;DHT22;23366;52.498;13.446;2022-07-24T13:28:28;27.90;51.40
37518;DHT22;23366;52.498;13.446;2022-07-24T13:30:53;27.80;50.80
37518;DHT22;23366;52.498;13.446;2022-07-24T13:33:19;27.60;51.00
37518;DHT22;23366;52.498;13.446;2022-07-24T13:35:44;27.60;52.10
37518;DHT22;23366;52.498;13.446;2022-07-24T13:38:10;27.60;51.50
37518;DHT22;23366;52.498;13.446;2022-07-24T13:40:36;27.50;50.90
37518;DHT22;23366;52.498;13.446;2022-07-24T13:43:01;27.50;50.10
37518;DHT22;23366;52.498;13.446;2022-07-24T13:45:27;27.50;50.20
37518;DHT22;23366;52.498;13.446;2022-07-24T13:47:53;27.50;50.50
37518;DHT22;23366;52.498;13.446;2022-07-24T13:50:18;27.50;51.00
37518;DHT22;23366;52.498;13.446;2022-07-24T13:52:44;27.50;50.40
37518;DHT22;23366;52.498;13.446;2022-07-24T13:55:10;27.60;50.00
37518;DHT22;23366;52.498;13.446;2022-07-24T13:57:35;27.60;49.10
37518;DHT22;23366;52.498;13.446;2022-07-24T14:00:01;27.70;50.80
37518;DHT22;23366;52.498;13.446;2022-07-24T14:02:26;27.70;49.40
37518;DHT22;23366;52.498;13.446;2022-07-24T14:04:52;27.70;49.10
37518;DHT22;23366;52.498;13.446;2022-07-24T14:07:17;27.70;49.80
37518;DHT22;23366;52.498;13.446;2022-07-24T14:09:43;27.70;50.40
37518;DHT22;23366;52.498;13.446;2022-07-24T14:12:09;27.70;49.70
37518;DHT22;23366;52.498;13.446;2022-07-24T14:14:35;27.70;49.50
37518;DHT22;23366;52.498;13.446;2022-07-24T14:17:00;27.70;49.70
37518;DHT22;23366;52.498;13.446;2022-07-24T14:19:26;27.70;50.40
37518;DHT22;23366;52.498;13.446;2022-07-24T14:21:52;27.70;49.50
37518;DHT22;23366;52.498;13.446;2022-07-24T14:24:19;27.80;49.30
37518;DHT22;23366;52.498;13.446;2022-07-24T14:26:45;27.70;48.40
37518;DHT22;23366;52.498;13.446;2022-07-24T14:29:12;27.70;48.60
37518;DHT22;23366;52.498;13.446;2022-07-24T14:31:37;27.70;48.90
37518;DHT22;23366;52.498;13.446;2022-07-24T14:34:03;27.60;49.50
37518;DHT22;23366;52.498;13.446;2022-07-24T14:36:29;27.60;49.90
37518;DHT22;23366;52.498;13.446;2022-07-24T14:38:55;27.60;49.50
37518;DHT22;23366;52.498;13.446;2022-07-24T14:41:21;27.50;49.50
37518;DHT22;23366;52.498;13.446;2022-07-24T14:43:46;27.50;49.00
37518;DHT22;23366;52.498;13.446;2022-07-24T14:46:12;27.50;48.80
37518;DHT22;23366;52.498;13.446;2022-07-24T14:48:40;27.50;49.90
37518;DHT22;23366;52.498;13.446;2022-07-24T14:51:05;27.50;50.00
37518;DHT22;23366;52.498;13.446;2022-07-24T14:53:31;27.50;50.40
37518;DHT22;23366;52.498;13.446;2022-07-24T14:55:57;27.50;49.70
37518;DHT22;23366;52.498;13.446;2022-07-24T14:58:22;27.40;49.00
37518;DHT22;23366;52.498;13.446;2022-07-24T15:00:48;27.40;49.00
37518;DHT22;23366;52.498;13.446;2022-07-24T15:03:14;27.40;49.70
37518;DHT22;23366;52.498;13.446;2022-07-24T15:05:40;27.40;49.80
37518;DHT22;23366;52.498;13.446;2022-07-24T15:08:05;27.40;50.20
37518;DHT22;23366;52.498;13.446;2022-07-24T15:10:31;27.40;49.90
37518;DHT22;23366;52.498;13.446;2022-07-24T15:12:56;27.30;50.30
37518;DHT22;23366;52.498;13.446;2022-07-24T15:15:22;27.30;49.70
37518;DHT22;23366;52.498;13.446;2022-07-24T15:17:48;27.30;49.40
37518;DHT22;23366;52.498;13.446;2022-07-24T15:20:13;27.30;50.00
37518;DHT22;23366;52.498;13.446;2022-07-24T15:22:39;27.30;49.80
37518;DHT22;23366;52.498;13.446;2022-07-24T15:25:05;27.30;49.90
37518;DHT22;23366;52.498;13.446;2022-07-24T15:27:31;27.30;50.40
37518;DHT22;23366;52.498;13.446;2022-07-24T15:29:56;27.30;50.50
37518;DHT22;23366;52.498;13.446;2022-07-24T15:32:22;27.40;49.60
37518;DHT22;23366;52.498;13.446;2022-07-24T15:34:47;27.40;50.30
37518;DHT22;23366;52.498;13.446;2022-07-24T15:37:13;27.30;50.60
37518;DHT22;23366;52.498;13.446;2022-07-24T15:39:38;27.40;50.40
37518;DHT22;23366;52.498;13.446;2022-07-24T15:42:04;27.40;50.30
37518;DHT22;23366;52.498;13.446;2022-07-24T15:44:30;27.40;50.30